KCVN/CVN METAR and TAF weather

Enter ICAO airport designator
Station Type Date Time Source
KCVN METAR 2019/06/17 12:56 UTC NOAA

KCVN 171256Z AUTO 18005KT 10SM CLR 18/14 A3009 RMK AO2 SLP150 T01780144


Station Type Date Time Source
KCVN Decoded METAR 2019/06/17 12:56 UTC NOAA

Clovis, Clovis Municipal Airport, NM, United States (KCVN) 34-26N 103-05W
Jun 17, 2019 - 08:56 AM EDT / 2019.06.17 1256 UTC
Wind: from the S (180 degrees) at 6 MPH (5 KT):0
Visibility: 10 mile(s):0
Sky conditions: clear
Temperature: 64.0 F (17.8 C)
Dew Point: 57.9 F (14.4 C)
Relative Humidity: 80%
Pressure (altimeter): 30.09 in. Hg (1018 hPa)
ob: KCVN 171256Z AUTO 18005KT 10SM CLR 18/14 A3009 RMK AO2 SLP150 T01780144
cycle: 13

Station Type Date Time Source
KCVN TAF UTC NOAA

Error!

Example: see airport list